Portada
METAR-TAF:

METAR-TAF

Aeroports :

Pittsfield Penstone Municipal Airport

Pittsfield, Illinois, Estats Units d'Amèrica

latitud: 39-38-20N, longitud: 090-46-42W, altitud: 216 m

Observació

L'informe es va fer fa 21 minuts, a les 17:35 UTC
Vent 9 kt del Sud/Sud-Est amb ràfegues de 17 kt
Temperatura 27°C
Humitat 74%
Pressió 1013 hPa
Visibilitat: 16.1 km
Cel ennuvolat a una alçada de 3500 ft
Cel ennuvolat a una alçada de 4300 ft
Cel ennuvolat a una alçada de 4800 ft

METAR: KPPQ 261735Z AUTO 16009G17KT 10SM BKN035 BKN043 BKN048 27/22 A2991 RMK AO2 T02710221

Hora: 12:56 (17:56 UTC)


TAF: manca

Observacions i pronòstics meteorològics de més de 4000 aeroports (METAR i TAF).

Les estacions disponibles són els punts grocs i vermells al mapa.

Posi el ratolí al punt desitjat per veure el nom de l'estació.

Feu clic per veure les observacions i els pronòstics meteorològics.

Per canviar el mapa: feu clic els botons verds amb una creu de color negre per apropar; al botó verd amb un guió per allunyar la imatge; o en les fletxes verdes per a mapes adjacents.


METAR-TAF: